Time,TemperatureF,DewpointF,PressureIn,WindDirection,WindDirectionDegrees,WindSpeedMPH,WindSpeedGustMPH,Humidity,HourlyPrecipIn,Conditions,Clouds,dailyrainin,SoftwareType,DateUTC
2013-02-01 00:05:00,41.8,41.8,30.30,East,82,0.0,0.0,100,0.00,,,0.00,Wunderground v.1.15,2013-02-01 08:05:00,
2013-02-01 00:35:00,41.6,41.6,30.30,East,82,0.0,0.0,100,0.00,,,0.00,Wunderground v.1.15,2013-02-01 08:35:00,
2013-02-01 01:05:00,41.5,41.5,30.29,East,82,0.0,0.0,100,0.00,,,0.00,Wunderground v.1.15,2013-02-01 09:05:00,
2013-02-01 01:35:00,41.1,41.1,30.28,East,82,0.0,0.0,100,0.00,,,0.00,Wunderground v.1.15,2013-02-01 09:35:00,
2013-02-01 02:05:00,40.5,40.5,30.28,East,82,0.0,0.0,100,0.00,,,0.00,Wunderground v.1.15,2013-02-01 10:05:00,
2013-02-01 02:35:00,39.2,39.2,30.29,East,82,0.0,0.0,100,0.00,,,0.00,Wunderground v.1.15,2013-02-01 10:35:00,
2013-02-01 03:05:00,39.1,39.1,30.28,East,82,0.0,0.0,100,0.00,,,0.00,Wunderground v.1.15,2013-02-01 11:05:00,
2013-02-01 03:35:00,39.1,39.1,30.27,East,82,0.0,0.0,100,0.00,,,0.00,Wunderground v.1.15,2013-02-01 11:35:00,
2013-02-01 04:05:00,38.8,38.8,30.27,East,82,0.0,0.0,100,0.00,,,0.00,Wunderground v.1.15,2013-02-01 12:05:00,
2013-02-01 04:35:00,40.2,40.2,30.26,ENE,59,0.0,0.0,100,0.00,,,0.00,Wunderground v.1.15,2013-02-01 12:35:00,
2013-02-01 05:05:00,41.1,41.1,30.25,East,95,0.0,0.0,100,0.00,,,0.00,Wunderground v.1.15,2013-02-01 13:05:00,
2013-02-01 05:35:00,41.1,41.1,30.25,East,93,0.0,0.0,100,0.00,,,0.00,Wunderground v.1.15,2013-02-01 13:35:00,
2013-02-01 06:05:00,41.1,41.1,30.25,NE,55,0.0,0.0,100,0.00,,,0.00,Wunderground v.1.15,2013-02-01 14:05:00,
2013-02-01 06:35:00,41.1,41.1,30.25,ENE,64,0.0,0.0,100,0.00,,,0.00,Wunderground v.1.15,2013-02-01 14:35:00,
2013-02-01 07:05:00,40.8,40.8,30.25,East,80,0.0,0.0,100,0.00,,,0.00,Wunderground v.1.15,2013-02-01 15:05:00,
2013-02-01 07:35:00,41.3,41.3,30.24,NNE,17,2.0,3.0,100,0.00,,,0.00,Wunderground v.1.15,2013-02-01 15:35:00,
2013-02-01 08:05:00,41.8,41.8,30.24,ESE,116,2.0,5.0,100,0.00,,,0.00,Wunderground v.1.15,2013-02-01 16:05:00,
2013-02-01 08:35:00,42.9,42.9,30.24,ENE,73,1.0,1.0,100,0.00,,,0.00,Wunderground v.1.15,2013-02-01 16:35:00,
2013-02-01 09:05:00,44.1,44.1,30.24,NE,54,2.0,2.0,100,0.00,,,0.00,Wunderground v.1.15,2013-02-01 17:05:00,
2013-02-01 09:35:00,46.2,46.2,30.25,ENE,61,0.0,1.0,100,0.00,,,0.00,Wunderground v.1.15,2013-02-01 17:35:00,
2013-02-01 10:05:00,47.0,47.0,30.24,NE,48,1.0,1.0,100,0.00,,,0.00,Wunderground v.1.15,2013-02-01 18:05:00,
2013-02-01 10:35:00,48.2,47.9,30.24,NE,55,1.0,1.0,99,0.00,,,0.00,Wunderground v.1.15,2013-02-01 18:35:00,
2013-02-01 11:05:00,48.6,48.1,30.23,East,100,2.0,2.0,98,0.00,,,0.00,Wunderground v.1.15,2013-02-01 19:05:00,
2013-02-01 11:35:00,49.8,48.4,30.23,ENE,59,2.0,2.0,95,0.00,,,0.00,Wunderground v.1.15,2013-02-01 19:35:00,
2013-02-01 12:05:00,51.0,49.0,30.23,East,93,1.0,3.0,93,0.00,,,0.00,Wunderground v.1.15,2013-02-01 20:05:00,
2013-02-01 12:35:00,52.0,49.5,30.22,ENE,68,1.0,1.0,91,0.00,,,0.00,Wunderground v.1.15,2013-02-01 20:35:00,
2013-02-01 13:05:00,53.2,50.0,30.21,NNE,16,1.0,1.0,89,0.00,,,0.00,Wunderground v.1.15,2013-02-01 21:05:00,
2013-02-01 13:35:00,53.5,49.7,30.19,NE,52,2.0,2.0,87,0.00,,,0.00,Wunderground v.1.15,2013-02-01 21:35:00,
2013-02-01 14:05:00,54.4,50.3,30.18,ENE,61,1.0,4.0,86,0.00,,,0.00,Wunderground v.1.15,2013-02-01 22:05:00,
2013-02-01 14:35:00,55.0,50.3,30.17,ENE,59,2.0,2.0,84,0.00,,,0.00,Wunderground v.1.15,2013-02-01 22:35:00,
2013-02-01 15:05:00,56.0,50.9,30.17,ENE,68,1.0,1.0,83,0.00,,,0.00,Wunderground v.1.15,2013-02-01 23:05:00,
2013-02-01 15:35:00,56.0,50.9,30.16,ENE,64,1.0,1.0,83,0.00,,,0.00,Wunderground v.1.15,2013-02-01 23:35:00,
2013-02-01 16:05:00,55.4,50.6,30.15,ENE,59,0.0,0.0,84,0.00,,,0.00,Wunderground v.1.15,2013-02-02 00:05:00,
2013-02-01 16:35:00,53.5,49.7,30.15,ENE,61,1.0,1.0,87,0.00,,,0.00,Wunderground v.1.15,2013-02-02 00:35:00,
2013-02-01 17:05:00,52.0,49.2,30.15,ENE,71,0.0,0.0,90,0.00,,,0.00,Wunderground v.1.15,2013-02-02 01:05:00,
2013-02-01 17:35:00,50.4,48.2,30.15,SE,128,1.0,1.0,92,0.00,,,0.00,Wunderground v.1.15,2013-02-02 01:35:00,
2013-02-01 18:05:00,48.8,47.4,30.15,ENE,71,0.0,0.0,95,0.00,,,0.00,Wunderground v.1.15,2013-02-02 02:05:00,
2013-02-01 18:35:00,47.6,46.8,30.15,NE,48,1.0,1.0,97,0.00,,,0.00,Wunderground v.1.15,2013-02-02 02:35:00,
2013-02-01 19:05:00,46.8,46.3,30.16,East,79,0.0,0.0,98,0.00,,,0.00,Wunderground v.1.15,2013-02-02 03:05:00,
2013-02-01 19:35:00,46.2,46.2,30.16,ENE,64,0.0,0.0,100,0.00,,,0.00,Wunderground v.1.15,2013-02-02 03:35:00,
2013-02-01 20:05:00,46.2,46.2,30.15,NE,44,0.0,0.0,100,0.00,,,0.00,Wunderground v.1.15,2013-02-02 04:05:00,
2013-02-01 20:35:00,46.2,46.2,30.15,NE,40,0.0,0.0,100,0.00,,,0.00,Wunderground v.1.15,2013-02-02 04:35:00,
2013-02-01 21:05:00,46.7,46.7,30.15,NE,51,1.0,1.0,100,0.00,,,0.00,Wunderground v.1.15,2013-02-02 05:05:00,
2013-02-01 21:35:00,46.5,46.5,30.16,ENE,71,0.0,0.0,100,0.00,,,0.00,Wunderground v.1.15,2013-02-02 05:35:00,
2013-02-01 22:05:00,46.1,46.1,30.16,ENE,58,0.0,0.0,100,0.00,,,0.00,Wunderground v.1.15,2013-02-02 06:05:00,
2013-02-01 22:35:00,46.1,46.1,30.16,ENE,66,0.0,0.0,100,0.00,,,0.00,Wunderground v.1.15,2013-02-02 06:35:00,
2013-02-01 23:05:00,46.1,46.1,30.16,ENE,58,0.0,1.0,100,0.00,,,0.00,Wunderground v.1.15,2013-02-02 07:05:00,
2013-02-01 23:35:00,46.1,46.1,30.17,ENE,64,0.0,0.0,100,0.00,,,0.00,Wunderground v.1.15,2013-02-02 07:35:00,